Cuenca, Spain
Current Conditions -  °F | °C
As of 9:30 PM on Tuesday 27 Jan 2015 (Local Time) from LETL Reporting Station
Clear Clear  
Wind Chill: 29°   Ceiling: Unl
Heat Index: 37°   Visibility: 6mi
Dew Point: 30°   Wind: 14mph
Humidity: 75%   Direction: 330°NNW
Pressure: 30.24"   Gusts: NA
Location:  40.07°N, 2.13°W
Report Text: LETL 272030Z AUTO 33012KT CAVOK 03/M01 Q1024
Loading
Personal Weather Stations






























Interactive Weather Map New forecast layout! Learn more

10-Day Weather Forecast

Advertisements
Track Severe Weather on mobile